sensor_id;sensor_type;location;lat;lon;timestamp;pressure;altitude;pressure_sealevel;temperature
15544;BMP180;7873;52.230;12.856;2023-07-20T00:01:33;100371.63;;;25.32
15544;BMP180;7873;52.230;12.856;2023-07-20T00:03:59;100368.94;;;25.32
15544;BMP180;7873;52.230;12.856;2023-07-20T00:06:27;100370.81;;;25.32
15544;BMP180;7873;52.230;12.856;2023-07-20T00:08:54;100371.84;;;25.31
15544;BMP180;7873;52.230;12.856;2023-07-20T00:11:21;100364.56;;;25.31
15544;BMP180;7873;52.230;12.856;2023-07-20T00:13:48;100371.63;;;25.32
15544;BMP180;7873;52.230;12.856;2023-07-20T00:16:15;100373.88;;;25.29
15544;BMP180;7873;52.230;12.856;2023-07-20T00:18:43;100373.06;;;25.28
15544;BMP180;7873;52.230;12.856;2023-07-20T00:21:09;100375.56;;;25.30
15544;BMP180;7873;52.230;12.856;2023-07-20T00:23:36;100367.50;;;25.30
15544;BMP180;7873;52.230;12.856;2023-07-20T00:26:03;100368.31;;;25.30
15544;BMP180;7873;52.230;12.856;2023-07-20T00:28:29;100371.00;;;25.30
15544;BMP180;7873;52.230;12.856;2023-07-20T00:30:56;100377.44;;;25.29
15544;BMP180;7873;52.230;12.856;2023-07-20T00:33:23;100372.88;;;25.30
15544;BMP180;7873;52.230;12.856;2023-07-20T00:35:51;100373.88;;;25.29
15544;BMP180;7873;52.230;12.856;2023-07-20T00:38:18;100376.56;;;25.29
15544;BMP180;7873;52.230;12.856;2023-07-20T00:40:44;100371.19;;;25.29
15544;BMP180;7873;52.230;12.856;2023-07-20T00:43:11;100368.50;;;25.29
15544;BMP180;7873;52.230;12.856;2023-07-20T00:45:38;100368.50;;;25.29
15544;BMP180;7873;52.230;12.856;2023-07-20T00:48:06;100373.06;;;25.28
15544;BMP180;7873;52.230;12.856;2023-07-20T00:50:33;100374.91;;;25.28
15544;BMP180;7873;52.230;12.856;2023-07-20T00:53:02;100368.72;;;25.27
15544;BMP180;7873;52.230;12.856;2023-07-20T00:55:30;100370.56;;;25.27
15544;BMP180;7873;52.230;12.856;2023-07-20T00:57:58;100378.63;;;25.27
15544;BMP180;7873;52.230;12.856;2023-07-20T01:00:25;100372.63;;;25.25
15544;BMP180;7873;52.230;12.856;2023-07-20T01:02:53;100371.59;;;25.26
15544;BMP180;7873;52.230;12.856;2023-07-20T01:05:20;100370.78;;;25.25
15544;BMP180;7873;52.230;12.856;2023-07-20T01:07:52;100361.03;;;25.24
15544;BMP180;7873;52.230;12.856;2023-07-20T01:10:26;100357.31;;;25.25
15544;BMP180;7873;52.230;12.856;2023-07-20T01:12:56;100361.03;;;25.24
15544;BMP180;7873;52.230;12.856;2023-07-20T01:15:23;100364.53;;;25.25
15544;BMP180;7873;52.230;12.856;2023-07-20T01:17:50;100360.81;;;25.26
15544;BMP180;7873;52.230;12.856;2023-07-20T01:20:19;100366.41;;;25.24
15544;BMP180;7873;52.230;12.856;2023-07-20T01:23:00;100373.66;;;25.24
15544;BMP180;7873;52.230;12.856;2023-07-20T01:25:47;100361.03;;;25.24
15544;BMP180;7873;52.230;12.856;2023-07-20T01:28:38;100374.50;;;25.24
15544;BMP180;7873;52.230;12.856;2023-07-20T01:31:21;100368.25;;;25.24
15544;BMP180;7873;52.230;12.856;2023-07-20T01:33:49;100368.25;;;25.24
15544;BMP180;7873;52.230;12.856;2023-07-20T01:36:17;100377.19;;;25.24
15544;BMP180;7873;52.230;12.856;2023-07-20T01:38:45;100370.97;;;25.24
15544;BMP180;7873;52.230;12.856;2023-07-20T01:41:12;100377.38;;;25.23
15544;BMP180;7873;52.230;12.856;2023-07-20T01:43:39;100362.88;;;25.24
15544;BMP180;7873;52.230;12.856;2023-07-20T01:46:06;100369.28;;;25.23
15544;BMP180;7873;52.230;12.856;2023-07-20T01:48:34;100371.19;;;25.22
15544;BMP180;7873;52.230;12.856;2023-07-20T01:51:01;100372.00;;;25.23
15544;BMP180;7873;52.230;12.856;2023-07-20T01:53:27;100373.03;;;25.22
15544;BMP180;7873;52.230;12.856;2023-07-20T01:55:54;100379.44;;;25.21
15544;BMP180;7873;52.230;12.856;2023-07-20T01:58:21;100371.34;;;25.21
15544;BMP180;7873;52.230;12.856;2023-07-20T02:00:47;100377.59;;;25.21
15544;BMP180;7873;52.230;12.856;2023-07-20T02:03:14;100384.03;;;25.20
15544;BMP180;7873;52.230;12.856;2023-07-20T02:05:43;100379.66;;;25.19
15544;BMP180;7873;52.230;12.856;2023-07-20T02:08:10;100377.78;;;25.20
15544;BMP180;7873;52.230;12.856;2023-07-20T02:10:37;100378.81;;;25.19
15544;BMP180;7873;52.230;12.856;2023-07-20T02:13:04;100375.31;;;25.18
15544;BMP180;7873;52.230;12.856;2023-07-20T02:15:31;100368.03;;;25.19
15544;BMP180;7873;52.230;12.856;2023-07-20T02:17:57;100374.47;;;25.18
15544;BMP180;7873;52.230;12.856;2023-07-20T02:20:24;100372.63;;;25.18
15544;BMP180;7873;52.230;12.856;2023-07-20T02:22:52;100376.13;;;25.19
15544;BMP180;7873;52.230;12.856;2023-07-20T02:25:19;100383.41;;;25.18
15544;BMP180;7873;52.230;12.856;2023-07-20T02:27:45;100385.25;;;25.18
15544;BMP180;7873;52.230;12.856;2023-07-20T02:30:12;100380.84;;;25.17
15544;BMP180;7873;52.230;12.856;2023-07-20T02:32:39;100387.06;;;25.17
15544;BMP180;7873;52.230;12.856;2023-07-20T02:35:06;100386.25;;;25.17
15544;BMP180;7873;52.230;12.856;2023-07-20T02:37:33;100378.16;;;25.17
15544;BMP180;7873;52.230;12.856;2023-07-20T02:40:01;100383.53;;;25.17
15544;BMP180;7873;52.230;12.856;2023-07-20T02:42:29;100388.09;;;25.16
15544;BMP180;7873;52.230;12.856;2023-07-20T02:44:56;100390.78;;;25.16
15544;BMP180;7873;52.230;12.856;2023-07-20T02:47:22;100399.72;;;25.17
15544;BMP180;7873;52.230;12.856;2023-07-20T02:49:49;100401.56;;;25.16
15544;BMP180;7873;52.230;12.856;2023-07-20T02:52:16;100405.09;;;25.17
15544;BMP180;7873;52.230;12.856;2023-07-20T02:54:42;100410.50;;;25.17
15544;BMP180;7873;52.230;12.856;2023-07-20T02:57:10;100410.69;;;25.15
15544;BMP180;7873;52.230;12.856;2023-07-20T02:59:37;100406.09;;;25.09
15544;BMP180;7873;52.230;12.856;2023-07-20T03:02:04;100408.78;;;25.09
15544;BMP180;7873;52.230;12.856;2023-07-20T03:04:30;100409.22;;;25.13
15544;BMP180;7873;52.230;12.856;2023-07-20T03:06:57;100402.59;;;25.15
15544;BMP180;7873;52.230;12.856;2023-07-20T03:09:25;100404.25;;;25.16
15544;BMP180;7873;52.230;12.856;2023-07-20T03:11:52;100411.16;;;25.19
15544;BMP180;7873;52.230;12.856;2023-07-20T03:14:20;100405.56;;;25.20
15544;BMP180;7873;52.230;12.856;2023-07-20T03:16:46;100411.38;;;25.24
15544;BMP180;7873;52.230;12.856;2023-07-20T03:19:13;100416.78;;;25.24
15544;BMP180;7873;52.230;12.856;2023-07-20T03:21:40;100411.84;;;25.27
15544;BMP180;7873;52.230;12.856;2023-07-20T03:24:06;100413.31;;;25.30
15544;BMP180;7873;52.230;12.856;2023-07-20T03:26:34;100419.50;;;25.30
15544;BMP180;7873;52.230;12.856;2023-07-20T03:29:00;100419.31;;;25.32
15544;BMP180;7873;52.230;12.856;2023-07-20T03:31:28;100428.22;;;25.32
15544;BMP180;7873;52.230;12.856;2023-07-20T03:33:55;100418.28;;;25.33
15544;BMP180;7873;52.230;12.856;2023-07-20T03:36:22;100424.28;;;25.28
15544;BMP180;7873;52.230;12.856;2023-07-20T03:38:49;100419.38;;;25.17
15544;BMP180;7873;52.230;12.856;2023-07-20T03:41:15;100433.47;;;25.13
15544;BMP180;7873;52.230;12.856;2023-07-20T03:43:42;100438.19;;;25.04
15544;BMP180;7873;52.230;12.856;2023-07-20T03:46:09;100432.50;;;24.93
15544;BMP180;7873;52.230;12.856;2023-07-20T03:48:37;100436.75;;;24.81
15544;BMP180;7873;52.230;12.856;2023-07-20T03:51:03;100439.91;;;24.84
15544;BMP180;7873;52.230;12.856;2023-07-20T03:53:30;100433.09;;;24.88
15544;BMP180;7873;52.230;12.856;2023-07-20T03:55:57;100431.66;;;24.92
15544;BMP180;7873;52.230;12.856;2023-07-20T03:58:24;100435.22;;;24.93
15544;BMP180;7873;52.230;12.856;2023-07-20T04:00:51;100435.84;;;24.95
15544;BMP180;7873;52.230;12.856;2023-07-20T04:03:18;100438.53;;;24.95
15544;BMP180;7873;52.230;12.856;2023-07-20T04:05:47;100437.69;;;24.94
15544;BMP180;7873;52.230;12.856;2023-07-20T04:08:13;100432.50;;;24.93
15544;BMP180;7873;52.230;12.856;2023-07-20T04:10:43;100435.22;;;24.93
15544;BMP180;7873;52.230;12.856;2023-07-20T04:13:10;100441.63;;;24.92
15544;BMP180;7873;52.230;12.856;2023-07-20T04:15:37;100444.50;;;24.90
15544;BMP180;7873;52.230;12.856;2023-07-20T04:18:03;100440.13;;;24.89
15544;BMP180;7873;52.230;12.856;2023-07-20T04:20:30;100442.03;;;24.89
15544;BMP180;7873;52.230;12.856;2023-07-20T04:22:58;100436.81;;;24.87
15544;BMP180;7873;52.230;12.856;2023-07-20T04:25:25;100436.81;;;24.87
15544;BMP180;7873;52.230;12.856;2023-07-20T04:27:51;100434.97;;;24.88
15544;BMP180;7873;52.230;12.856;2023-07-20T04:30:19;100433.47;;;24.85
15544;BMP180;7873;52.230;12.856;2023-07-20T04:32:46;100437.03;;;24.86
15544;BMP180;7873;52.230;12.856;2023-07-20T04:35:17;100440.28;;;24.81
15544;BMP180;7873;52.230;12.856;2023-07-20T04:37:44;100440.47;;;24.80
15544;BMP180;7873;52.230;12.856;2023-07-20T04:40:15;100440.47;;;24.80
15544;BMP180;7873;52.230;12.856;2023-07-20T04:42:42;100442.53;;;24.78
15544;BMP180;7873;52.230;12.856;2023-07-20T04:45:09;100445.22;;;24.78
15544;BMP180;7873;52.230;12.856;2023-07-20T04:47:35;100447.91;;;24.78
15544;BMP180;7873;52.230;12.856;2023-07-20T04:50:03;100437.38;;;24.76
15544;BMP180;7873;52.230;12.856;2023-07-20T04:52:29;100444.81;;;24.74
15544;BMP180;7873;52.230;12.856;2023-07-20T04:54:56;100450.38;;;24.73
15544;BMP180;7873;52.230;12.856;2023-07-20T04:57:24;100450.94;;;24.68
15544;BMP180;7873;52.230;12.856;2023-07-20T04:59:51;100445.06;;;24.58
15544;BMP180;7873;52.230;12.856;2023-07-20T05:02:18;100445.53;;;24.62
15544;BMP180;7873;52.230;12.856;2023-07-20T05:04:45;100455.91;;;24.65
15544;BMP180;7873;52.230;12.856;2023-07-20T05:07:11;100460.50;;;24.71
15544;BMP180;7873;52.230;12.856;2023-07-20T05:09:38;100454.66;;;24.67
15544;BMP180;7873;52.230;12.856;2023-07-20T05:12:06;100461.47;;;24.63
15544;BMP180;7873;52.230;12.856;2023-07-20T05:14:34;100461.16;;;24.52
15544;BMP180;7873;52.230;12.856;2023-07-20T05:17:01;100471.47;;;24.48
15544;BMP180;7873;52.230;12.856;2023-07-20T05:19:27;100470.91;;;24.53
15544;BMP180;7873;52.230;12.856;2023-07-20T05:21:54;100461.41;;;24.57
15544;BMP180;7873;52.230;12.856;2023-07-20T05:24:21;100472.38;;;24.55
15544;BMP180;7873;52.230;12.856;2023-07-20T05:26:47;100469.94;;;24.60
15544;BMP180;7873;52.230;12.856;2023-07-20T05:29:14;100469.38;;;24.65
15544;BMP180;7873;52.230;12.856;2023-07-20T05:31:42;100478.50;;;24.70
15544;BMP180;7873;52.230;12.856;2023-07-20T05:34:09;100476.66;;;24.71
15544;BMP180;7873;52.230;12.856;2023-07-20T05:36:35;100475.47;;;24.73
15544;BMP180;7873;52.230;12.856;2023-07-20T05:39:03;100474.84;;;24.78
15544;BMP180;7873;52.230;12.856;2023-07-20T05:41:29;100471.97;;;24.79
15544;BMP180;7873;52.230;12.856;2023-07-20T05:43:56;100471.75;;;24.81
15544;BMP180;7873;52.230;12.856;2023-07-20T05:46:23;100482.34;;;24.82
15544;BMP180;7873;52.230;12.856;2023-07-20T05:48:51;100482.94;;;24.78
15544;BMP180;7873;52.230;12.856;2023-07-20T05:51:17;100483.13;;;24.76
15544;BMP180;7873;52.230;12.856;2023-07-20T05:53:44;100483.78;;;24.78
15544;BMP180;7873;52.230;12.856;2023-07-20T05:56:11;100488.91;;;24.73
15544;BMP180;7873;52.230;12.856;2023-07-20T05:58:37;100488.84;;;24.67
15544;BMP180;7873;52.230;12.856;2023-07-20T06:01:04;100491.53;;;24.67
15544;BMP180;7873;52.230;12.856;2023-07-20T06:03:32;100496.69;;;24.62
15544;BMP180;7873;52.230;12.856;2023-07-20T06:06:01;100497.75;;;24.67
15544;BMP180;7873;52.230;12.856;2023-07-20T06:08:28;100493.84;;;24.70
15544;BMP180;7873;52.230;12.856;2023-07-20T06:10:55;100495.34;;;24.72
15544;BMP180;7873;52.230;12.856;2023-07-20T06:13:21;100497.00;;;24.73
15544;BMP180;7873;52.230;12.856;2023-07-20T06:15:48;100494.03;;;24.68
15544;BMP180;7873;52.230;12.856;2023-07-20T06:18:15;100493.22;;;24.68
15544;BMP180;7873;52.230;12.856;2023-07-20T06:20:42;100490.13;;;24.71
15544;BMP180;7873;52.230;12.856;2023-07-20T06:23:10;100485.84;;;24.76
15544;BMP180;7873;52.230;12.856;2023-07-20T06:25:36;100497.19;;;24.72
15544;BMP180;7873;52.230;12.856;2023-07-20T06:28:03;100491.47;;;24.60
15544;BMP180;7873;52.230;12.856;2023-07-20T06:30:30;100494.66;;;24.49
15544;BMP180;7873;52.230;12.856;2023-07-20T06:33:00;100491.06;;;24.42
15544;BMP180;7873;52.230;12.856;2023-07-20T06:35:26;100496.19;;;24.37
15544;BMP180;7873;52.230;12.856;2023-07-20T06:37:53;100488.50;;;24.34
15544;BMP180;7873;52.230;12.856;2023-07-20T06:40:21;100499.91;;;24.36
15544;BMP180;7873;52.230;12.856;2023-07-20T06:42:48;100498.88;;;24.37
15544;BMP180;7873;52.230;12.856;2023-07-20T06:45:15;100501.75;;;24.36
15544;BMP180;7873;52.230;12.856;2023-07-20T06:47:42;100495.94;;;24.32
15544;BMP180;7873;52.230;12.856;2023-07-20T06:50:09;100495.22;;;24.24
15544;BMP180;7873;52.230;12.856;2023-07-20T06:52:36;100495.59;;;24.21
15544;BMP180;7873;52.230;12.856;2023-07-20T06:55:04;100494.50;;;24.15
15544;BMP180;7873;52.230;12.856;2023-07-20T06:57:32;100500.78;;;24.22
15544;BMP180;7873;52.230;12.856;2023-07-20T06:59:59;100501.69;;;24.29
15544;BMP180;7873;52.230;12.856;2023-07-20T07:02:25;100496.69;;;24.26
15544;BMP180;7873;52.230;12.856;2023-07-20T07:04:52;100502.09;;;24.26
15544;BMP180;7873;52.230;12.856;2023-07-20T07:07:19;100501.94;;;24.34
15544;BMP180;7873;52.230;12.856;2023-07-20T07:09:45;100504.91;;;24.39
15544;BMP180;7873;52.230;12.856;2023-07-20T07:12:12;100502.91;;;24.48
15544;BMP180;7873;52.230;12.856;2023-07-20T07:14:40;100505.50;;;24.56
15544;BMP180;7873;52.230;12.856;2023-07-20T07:17:07;100509.28;;;24.61
15544;BMP180;7873;52.230;12.856;2023-07-20T07:19:34;100515.53;;;24.62
15544;BMP180;7873;52.230;12.856;2023-07-20T07:22:01;100511.59;;;24.64
15544;BMP180;7873;52.230;12.856;2023-07-20T07:24:28;100506.84;;;24.66
15544;BMP180;7873;52.230;12.856;2023-07-20T07:26:59;100513.91;;;24.67
15544;BMP180;7873;52.230;12.856;2023-07-20T07:29:25;100510.81;;;24.70
15544;BMP180;7873;52.230;12.856;2023-07-20T07:31:53;100510.66;;;24.72
15544;BMP180;7873;52.230;12.856;2023-07-20T07:34:20;100513.34;;;24.72
15544;BMP180;7873;52.230;12.856;2023-07-20T07:36:47;100516.88;;;24.72
15544;BMP180;7873;52.230;12.856;2023-07-20T07:39:13;100513.97;;;24.74
15544;BMP180;7873;52.230;12.856;2023-07-20T07:41:40;100509.44;;;24.74
15544;BMP180;7873;52.230;12.856;2023-07-20T07:44:07;100519.19;;;24.75
15544;BMP180;7873;52.230;12.856;2023-07-20T07:46:33;100522.69;;;24.76
15544;BMP180;7873;52.230;12.856;2023-07-20T07:49:01;100530.78;;;24.76
15544;BMP180;7873;52.230;12.856;2023-07-20T07:51:28;100527.03;;;24.77
15544;BMP180;7873;52.230;12.856;2023-07-20T07:53:55;100526.22;;;24.76
15544;BMP180;7873;52.230;12.856;2023-07-20T07:56:21;100531.63;;;24.76
15544;BMP180;7873;52.230;12.856;2023-07-20T07:58:48;100528.06;;;24.76
15544;BMP180;7873;52.230;12.856;2023-07-20T08:01:15;100532.66;;;24.75
15544;BMP180;7873;52.230;12.856;2023-07-20T08:03:42;100535.34;;;24.75
15544;BMP180;7873;52.230;12.856;2023-07-20T08:06:11;100532.66;;;24.75
15544;BMP180;7873;52.230;12.856;2023-07-20T08:08:37;100537.81;;;24.77
15544;BMP180;7873;52.230;12.856;2023-07-20T08:11:04;100534.31;;;24.76
15544;BMP180;7873;52.230;12.856;2023-07-20T08:13:31;100542.19;;;24.78
15544;BMP180;7873;52.230;12.856;2023-07-20T08:15:58;100533.47;;;24.76
15544;BMP180;7873;52.230;12.856;2023-07-20T08:18:25;100537.00;;;24.76
15544;BMP180;7873;52.230;12.856;2023-07-20T08:20:52;100541.53;;;24.76
15544;BMP180;7873;52.230;12.856;2023-07-20T08:23:20;100548.81;;;24.75
15544;BMP180;7873;52.230;12.856;2023-07-20T08:25:47;100545.09;;;24.76
15544;BMP180;7873;52.230;12.856;2023-07-20T08:28:14;100551.28;;;24.77
15544;BMP180;7873;52.230;12.856;2023-07-20T08:30:41;100544.88;;;24.78
15544;BMP180;7873;52.230;12.856;2023-07-20T08:33:09;100552.13;;;24.77
15544;BMP180;7873;52.230;12.856;2023-07-20T08:35:36;100557.53;;;24.77
15544;BMP180;7873;52.230;12.856;2023-07-20T08:38:02;100551.09;;;24.78
15544;BMP180;7873;52.230;12.856;2023-07-20T08:40:32;100554.81;;;24.77
15544;BMP180;7873;52.230;12.856;2023-07-20T08:42:59;100550.47;;;24.76
15544;BMP180;7873;52.230;12.856;2023-07-20T08:45:26;100540.50;;;24.77
15544;BMP180;7873;52.230;12.856;2023-07-20T08:47:54;100537.63;;;24.78
15544;BMP180;7873;52.230;12.856;2023-07-20T08:50:22;100536.63;;;24.79
15544;BMP180;7873;52.230;12.856;2023-07-20T08:52:51;100533.06;;;24.79
15544;BMP180;7873;52.230;12.856;2023-07-20T08:55:19;100536.78;;;24.78
15544;BMP180;7873;52.230;12.856;2023-07-20T08:57:49;100525.19;;;24.77
15544;BMP180;7873;52.230;12.856;2023-07-20T09:00:17;100537.63;;;24.78
15544;BMP180;7873;52.230;12.856;2023-07-20T09:02:46;100544.47;;;24.81
15544;BMP180;7873;52.230;12.856;2023-07-20T09:05:13;100532.03;;;24.80
15544;BMP180;7873;52.230;12.856;2023-07-20T09:07:40;100534.09;;;24.78
15544;BMP180;7873;52.230;12.856;2023-07-20T09:10:07;100546.75;;;24.77
15544;BMP180;7873;52.230;12.856;2023-07-20T09:12:35;100544.22;;;24.76
15544;BMP180;7873;52.230;12.856;2023-07-20T09:15:04;100546.09;;;24.75
15544;BMP180;7873;52.230;12.856;2023-07-20T09:17:31;100548.41;;;24.78
15544;BMP180;7873;52.230;12.856;2023-07-20T09:19:58;100542.19;;;24.78
15544;BMP180;7873;52.230;12.856;2023-07-20T09:22:29;100548.19;;;24.80
15544;BMP180;7873;52.230;12.856;2023-07-20T09:24:56;100544.69;;;24.79
15544;BMP180;7873;52.230;12.856;2023-07-20T09:27:34;100546.34;;;24.80
15544;BMP180;7873;52.230;12.856;2023-07-20T09:30:01;100548.84;;;24.82
15544;BMP180;7873;52.230;12.856;2023-07-20T09:32:29;100546.34;;;24.80
15544;BMP180;7873;52.230;12.856;2023-07-20T09:34:56;100540.13;;;24.80
15544;BMP180;7873;52.230;12.856;2023-07-20T09:37:23;100548.41;;;24.78
15544;BMP180;7873;52.230;12.856;2023-07-20T09:39:51;100552.94;;;24.78
15544;BMP180;7873;52.230;12.856;2023-07-20T09:42:19;100554.63;;;24.79
15544;BMP180;7873;52.230;12.856;2023-07-20T09:44:48;100552.94;;;24.78
15544;BMP180;7873;52.230;12.856;2023-07-20T09:47:21;100552.78;;;24.79
15544;BMP180;7873;52.230;12.856;2023-07-20T09:49:49;100556.50;;;24.78
15544;BMP180;7873;52.230;12.856;2023-07-20T09:52:16;100550.09;;;24.79
15544;BMP180;7873;52.230;12.856;2023-07-20T09:54:44;100551.94;;;24.79
15544;BMP180;7873;52.230;12.856;2023-07-20T09:57:11;100556.28;;;24.80
15544;BMP180;7873;52.230;12.856;2023-07-20T09:59:41;100551.94;;;24.79
15544;BMP180;7873;52.230;12.856;2023-07-20T10:02:20;100553.25;;;24.68
15544;BMP180;7873;52.230;12.856;2023-07-20T10:04:50;100554.84;;;24.42
15544;BMP180;7873;52.230;12.856;2023-07-20T10:07:19;100555.69;;;24.28
15544;BMP180;7873;52.230;12.856;2023-07-20T10:09:48;100556.28;;;24.09
15544;BMP180;7873;52.230;12.856;2023-07-20T10:12:20;100559.09;;;24.01
15544;BMP180;7873;52.230;12.856;2023-07-20T10:14:52;100558.69;;;24.18
15544;BMP180;7873;52.230;12.856;2023-07-20T10:17:21;100551.25;;;24.20
15544;BMP180;7873;52.230;12.856;2023-07-20T10:19:51;100548.19;;;24.23
15544;BMP180;7873;52.230;12.856;2023-07-20T10:22:25;100545.78;;;24.28
15544;BMP180;7873;52.230;12.856;2023-07-20T10:24:53;100545.69;;;24.22
15544;BMP180;7873;52.230;12.856;2023-07-20T10:27:23;100549.75;;;24.32
15544;BMP180;7873;52.230;12.856;2023-07-20T10:29:51;100551.50;;;24.40
15544;BMP180;7873;52.230;12.856;2023-07-20T10:32:19;100557.78;;;24.47
15544;BMP180;7873;52.230;12.856;2023-07-20T10:34:51;100550.25;;;24.57
15544;BMP180;7873;52.230;12.856;2023-07-20T10:37:46;100545.72;;;24.57
15544;BMP180;7873;52.230;12.856;2023-07-20T10:40:29;100545.56;;;24.65
15544;BMP180;7873;52.230;12.856;2023-07-20T10:43:01;100545.41;;;24.67
15544;BMP180;7873;52.230;12.856;2023-07-20T10:45:42;100547.50;;;24.71
15544;BMP180;7873;52.230;12.856;2023-07-20T10:48:19;100547.69;;;24.70
15544;BMP180;7873;52.230;12.856;2023-07-20T10:51:08;100550.72;;;24.60
15544;BMP180;7873;52.230;12.856;2023-07-20T10:53:34;100544.94;;;24.63
15544;BMP180;7873;52.230;12.856;2023-07-20T10:56:08;100543.91;;;24.64
15544;BMP180;7873;52.230;12.856;2023-07-20T10:58:35;100544.75;;;24.65
15544;BMP180;7873;52.230;12.856;2023-07-20T11:01:03;100537.88;;;24.62
15544;BMP180;7873;52.230;12.856;2023-07-20T11:03:32;100538.91;;;24.61
15544;BMP180;7873;52.230;12.856;2023-07-20T11:06:30;100542.78;;;24.52
15544;BMP180;7873;52.230;12.856;2023-07-20T11:09:04;100551.66;;;24.53
15544;BMP180;7873;52.230;12.856;2023-07-20T11:11:33;100542.38;;;24.55
15544;BMP180;7873;52.230;12.856;2023-07-20T11:14:01;100535.34;;;24.54
15544;BMP180;7873;52.230;12.856;2023-07-20T11:16:37;100542.25;;;24.63
15544;BMP180;7873;52.230;12.856;2023-07-20T11:19:05;100549.56;;;24.69
15544;BMP180;7873;52.230;12.856;2023-07-20T11:21:37;100546.69;;;24.71
15544;BMP180;7873;52.230;12.856;2023-07-20T11:24:05;100544.16;;;24.69
15544;BMP180;7873;52.230;12.856;2023-07-20T11:26:40;100553.72;;;24.72
15544;BMP180;7873;52.230;12.856;2023-07-20T11:29:06;100545.81;;;24.70
15544;BMP180;7873;52.230;12.856;2023-07-20T11:31:35;100545.47;;;24.73
15544;BMP180;7873;52.230;12.856;2023-07-20T11:34:02;100545.66;;;24.72
15544;BMP180;7873;52.230;12.856;2023-07-20T11:36:29;100550.19;;;24.71
15544;BMP180;7873;52.230;12.856;2023-07-20T11:38:57;100543.81;;;24.72
15544;BMP180;7873;52.230;12.856;2023-07-20T11:41:24;100539.41;;;24.71
15544;BMP180;7873;52.230;12.856;2023-07-20T11:43:51;100537.56;;;24.72
15544;BMP180;7873;52.230;12.856;2023-07-20T11:46:18;100541.47;;;24.69
15544;BMP180;7873;52.230;12.856;2023-07-20T11:48:44;100529.66;;;24.70
15544;BMP180;7873;52.230;12.856;2023-07-20T11:51:14;100526.72;;;24.65
15544;BMP180;7873;52.230;12.856;2023-07-20T11:53:41;100534.41;;;24.68
15544;BMP180;7873;52.230;12.856;2023-07-20T11:56:09;100529.25;;;24.67
15544;BMP180;7873;52.230;12.856;2023-07-20T11:58:41;100531.94;;;24.67
15544;BMP180;7873;52.230;12.856;2023-07-20T12:01:08;100539.38;;;24.65
15544;BMP180;7873;52.230;12.856;2023-07-20T12:03:35;100542.06;;;24.65
15544;BMP180;7873;52.230;12.856;2023-07-20T12:06:06;100541.22;;;24.64
15544;BMP180;7873;52.230;12.856;2023-07-20T12:08:34;100539.56;;;24.63
15544;BMP180;7873;52.230;12.856;2023-07-20T12:11:00;100541.59;;;24.61
15544;BMP180;7873;52.230;12.856;2023-07-20T12:13:37;100539.75;;;24.62
15544;BMP180;7873;52.230;12.856;2023-07-20T12:16:09;100535.19;;;24.62
15544;BMP180;7873;52.230;12.856;2023-07-20T12:18:36;100540.56;;;24.62
15544;BMP180;7873;52.230;12.856;2023-07-20T12:21:02;100544.13;;;24.63
15544;BMP180;7873;52.230;12.856;2023-07-20T12:23:35;100543.47;;;24.61
15544;BMP180;7873;52.230;12.856;2023-07-20T12:26:02;100544.31;;;24.61
15544;BMP180;7873;52.230;12.856;2023-07-20T12:28:31;100553.53;;;24.52
15544;BMP180;7873;52.230;12.856;2023-07-20T12:30:59;100548.78;;;24.54
15544;BMP180;7873;52.230;12.856;2023-07-20T12:33:26;100551.47;;;24.54
15544;BMP180;7873;52.230;12.856;2023-07-20T12:35:53;100549.44;;;24.56
15544;BMP180;7873;52.230;12.856;2023-07-20T12:38:21;100545.72;;;24.57
15544;BMP180;7873;52.230;12.856;2023-07-20T12:40:48;100543.66;;;24.59
15544;BMP180;7873;52.230;12.856;2023-07-20T12:43:15;100539.13;;;24.60
15544;BMP180;7873;52.230;12.856;2023-07-20T12:45:41;100536.22;;;24.61
15544;BMP180;7873;52.230;12.856;2023-07-20T12:48:10;100529.16;;;24.60
15544;BMP180;7873;52.230;12.856;2023-07-20T12:50:36;100525.66;;;24.60
15544;BMP180;7873;52.230;12.856;2023-07-20T12:53:03;100531.41;;;24.57
15544;BMP180;7873;52.230;12.856;2023-07-20T12:55:30;100524.19;;;24.57
15544;BMP180;7873;52.230;12.856;2023-07-20T12:57:56;100524.56;;;24.54
15544;BMP180;7873;52.230;12.856;2023-07-20T13:00:23;100535.13;;;24.56
15544;BMP180;7873;52.230;12.856;2023-07-20T13:02:50;100527.25;;;24.54
15544;BMP180;7873;52.230;12.856;2023-07-20T13:05:18;100529.09;;;24.54
15544;BMP180;7873;52.230;12.856;2023-07-20T13:07:45;100518.16;;;24.55
15544;BMP180;7873;52.230;12.856;2023-07-20T13:10:12;100520.00;;;24.55
15544;BMP180;7873;52.230;12.856;2023-07-20T13:12:39;100517.88;;;24.50
15544;BMP180;7873;52.230;12.856;2023-07-20T13:15:07;100523.91;;;24.52
15544;BMP180;7873;52.230;12.856;2023-07-20T13:17:34;100523.91;;;24.52
15544;BMP180;7873;52.230;12.856;2023-07-20T13:20:01;100520.84;;;24.55
15544;BMP180;7873;52.230;12.856;2023-07-20T13:22:31;100515.25;;;24.57
15544;BMP180;7873;52.230;12.856;2023-07-20T13:24:58;100524.19;;;24.57
15544;BMP180;7873;52.230;12.856;2023-07-20T13:27:25;100520.63;;;24.57
15544;BMP180;7873;52.230;12.856;2023-07-20T13:29:52;100520.84;;;24.55
15544;BMP180;7873;52.230;12.856;2023-07-20T13:32:19;100521.28;;;24.59
15544;BMP180;7873;52.230;12.856;2023-07-20T13:34:46;100516.75;;;24.59
15544;BMP180;7873;52.230;12.856;2023-07-20T13:37:13;100516.28;;;24.56
15544;BMP180;7873;52.230;12.856;2023-07-20T13:39:42;100520.00;;;24.55
15544;BMP180;7873;52.230;12.856;2023-07-20T13:42:10;100527.03;;;24.56
15544;BMP180;7873;52.230;12.856;2023-07-20T13:44:38;100514.59;;;24.55
15544;BMP180;7873;52.230;12.856;2023-07-20T13:47:05;100517.94;;;24.57
15544;BMP180;7873;52.230;12.856;2023-07-20T13:49:32;100512.56;;;24.57
15544;BMP180;7873;52.230;12.856;2023-07-20T13:51:58;100503.03;;;24.54
15544;BMP180;7873;52.230;12.856;2023-07-20T13:54:25;100503.03;;;24.54
15544;BMP180;7873;52.230;12.856;2023-07-20T13:56:53;100500.50;;;24.53
15544;BMP180;7873;52.230;12.856;2023-07-20T13:59:20;100503.22;;;24.53
15544;BMP180;7873;52.230;12.856;2023-07-20T14:01:46;100498.66;;;24.53